Time;durP1;ratioP1;P1;durP2;ratioP2;P2;SDS_P1;SDS_P2;PMS_P1;PMS_P2;Temp;Humidity;BMP_temperature;BMP_pressure;BME280_temperature;BME280_humidity;BME280_pressure;Samples;Min_cycle;Max_cycle;Signal;HPM_P1;HPM_P2
2023/08/30 04:32:53;;;;;;;;;5.50;5.50;;;;;25.60;43.54;100490.53;4940147;28;45288;-59
2023/08/30 04:35:18;;;;;;;;;5.75;4.00;;;;;25.55;44.34;100488.28;4941151;28;45357;-58
2023/08/30 04:37:44;;;;;;;;;4.00;4.00;;;;;25.45;44.08;100479.34;4941306;28;52882;-58
2023/08/30 04:40:10;;;;;;;;;3.50;3.00;;;;;25.50;44.19;100476.09;4940995;28;45383;-58
2023/08/30 04:42:36;;;;;;;;;4.75;4.75;;;;;25.38;44.83;100474.72;4941349;28;47260;-58
2023/08/30 04:45:02;;;;;;;;;6.00;5.00;;;;;25.40;45.18;100486.41;4941579;28;45203;-58
2023/08/30 04:47:29;;;;;;;;;5.00;5.00;;;;;25.31;44.81;100473.69;4941472;28;45254;-58
2023/08/30 04:49:54;;;;;;;;;4.00;4.00;;;;;25.26;45.51;100475.06;4940612;28;45571;-58
2023/08/30 04:52:20;;;;;;;;;4.25;4.25;;;;;25.35;45.02;100475.91;4940963;28;46347;-59
2023/08/30 04:54:45;;;;;;;;;4.25;4.25;;;;;25.44;45.10;100480.38;4940891;28;54905;-59
2023/08/30 04:57:14;;;;;;;;;3.50;3.50;;;;;25.50;44.94;100476.97;4941223;28;45374;-58
2023/08/30 04:59:40;;;;;;;;;4.75;4.75;;;;;25.49;45.25;100478.00;4941064;28;45414;-57
2023/08/30 05:02:05;;;;;;;;;5.00;3.50;;;;;25.71;44.46;100476.44;4940776;28;46296;-58
2023/08/30 05:04:31;;;;;;;;;4.25;3.00;;;;;25.69;44.52;100475.75;4941075;28;45244;-58
2023/08/30 05:06:56;;;;;;;;;4.75;4.75;;;;;25.54;44.88;100471.97;4941245;28;45464;-58
2023/08/30 05:09:24;;;;;;;;;3.75;3.25;;;;;25.50;45.04;100476.09;4941252;28;45550;-58
2023/08/30 05:11:50;;;;;;;;;5.25;5.00;;;;;25.50;45.19;100476.97;4940614;28;47078;-58
2023/08/30 05:14:15;;;;;;;;;4.25;4.00;;;;;25.46;44.91;100464.59;4940993;28;45382;-71
2023/08/30 05:16:41;;;;;;;;;4.50;4.50;;;;;25.44;44.79;100463.91;4941208;28;45329;-70
2023/08/30 05:19:06;;;;;;;;;6.00;5.00;;;;;25.49;44.86;100457.91;4940601;28;45454;-70
2023/08/30 05:21:31;;;;;;;;;4.00;4.00;;;;;25.45;45.06;100462.88;4940457;28;55592;-71
2023/08/30 05:23:56;;;;;;;;;4.50;4.50;;;;;25.45;44.93;100476.59;4940384;28;54657;-72
2023/08/30 05:26:22;;;;;;;;;5.00;5.00;;;;;25.48;44.89;100472.66;4941242;28;45580;-71
2023/08/30 05:28:47;;;;;;;;;6.75;5.25;;;;;25.47;44.90;100473.69;4940101;28;51535;-70
2023/08/30 05:31:12;;;;;;;;;6.50;5.00;;;;;25.53;44.79;100478.47;4955009;28;45639;-71
2023/08/30 05:33:39;;;;;;;;;6.75;5.75;;;;;25.39;45.18;100462.72;4940597;28;45331;-70
2023/08/30 05:36:04;;;;;;;;;7.00;5.25;;;;;25.68;44.51;100479.53;4940279;28;45955;-70
2023/08/30 05:38:29;;;;;;;;;5.75;5.75;;;;;25.61;44.49;100478.50;4940715;28;45553;-71
2023/08/30 05:40:54;;;;;;;;;3.25;3.25;;;;;25.60;44.93;100485.06;4940438;28;48792;-70
2023/08/30 05:43:20;;;;;;;;;5.75;4.00;;;;;25.68;44.24;100478.69;4940339;28;52286;-71
2023/08/30 05:45:45;;;;;;;;;4.00;4.00;;;;;25.67;44.69;100474.22;4940511;28;47960;-72
2023/08/30 05:48:11;;;;;;;;;4.75;4.00;;;;;25.84;44.12;100482.25;4939940;28;49162;-70
2023/08/30 05:50:36;;;;;;;;;5.75;4.50;;;;;25.89;44.41;100485.31;4940232;28;45658;-70
2023/08/30 05:53:03;;;;;;;;;5.00;5.00;;;;;25.85;44.24;100486.72;4940146;28;50208;-71
2023/08/30 05:55:29;;;;;;;;;5.00;5.00;;;;;25.85;44.09;100480.38;4940463;28;45488;-70
2023/08/30 05:57:54;;;;;;;;;5.00;5.00;;;;;25.85;44.43;100481.22;4940313;28;45227;-72
2023/08/30 06:00:20;;;;;;;;;6.75;4.00;;;;;25.69;44.63;100485.91;4939632;28;46360;-70
2023/08/30 06:02:45;;;;;;;;;6.25;5.75;;;;;25.84;44.49;100490.50;4940094;28;45517;-70
2023/08/30 06:05:11;;;;;;;;;2.75;2.75;;;;;25.76;45.01;100503.38;4937522;28;45539;-70
2023/08/30 06:07:36;;;;;;;;;4.00;4.00;;;;;25.36;45.57;100474.88;4937760;28;45463;-70
2023/08/30 06:10:02;;;;;;;;;2.75;2.75;;;;;25.51;45.83;100486.06;4938067;28;46934;-70
2023/08/30 06:12:27;;;;;;;;;4.25;4.25;;;;;25.63;45.47;100491.03;4938029;28;45493;-70
2023/08/30 06:14:53;;;;;;;;;4.50;4.50;;;;;25.43;45.69;100489.66;4940196;28;45319;-71
2023/08/30 06:17:19;;;;;;;;;8.00;5.25;;;;;25.57;45.41;100490.84;4939951;28;45371;-70
2023/08/30 06:19:45;;;;;;;;;7.00;5.00;;;;;25.51;45.77;100492.41;4939878;28;46116;-70
2023/08/30 06:22:11;;;;;;;;;4.50;4.50;;;;;25.56;45.63;100487.25;4939913;28;45248;-71
2023/08/30 06:24:36;;;;;;;;;5.50;5.50;;;;;25.60;45.29;100490.53;4942468;28;45207;-69
2023/08/30 06:27:02;;;;;;;;;5.25;5.25;;;;;25.43;45.83;100483.31;4943475;28;45555;-69
2023/08/30 06:29:27;;;;;;;;;2.00;2.00;;;;;25.41;46.27;100494.47;4942954;28;46119;-69
2023/08/30 06:31:52;;;;;;;;;6.00;4.50;;;;;25.35;46.54;100484.16;4956851;28;46023;-71
2023/08/30 06:34:18;;;;;;;;;4.00;4.00;;;;;25.45;45.92;100493.06;4962591;28;45196;-71
2023/08/30 06:36:43;;;;;;;;;4.75;4.75;;;;;25.39;46.36;100490.16;4962418;28;45554;-70
2023/08/30 06:39:08;;;;;;;;;6.00;4.25;;;;;25.49;46.03;100493.59;4962544;28;47045;-69
2023/08/30 06:41:34;;;;;;;;;5.75;5.75;;;;;25.50;46.14;100498.06;4962360;28;45156;-70
2023/08/30 06:43:59;;;;;;;;;7.25;5.75;;;;;25.48;45.98;100483.66;4962167;28;55396;-71
2023/08/30 06:46:24;;;;;;;;;5.75;4.00;;;;;25.53;46.12;100494.94;4962347;28;45228;-70
2023/08/30 06:48:50;;;;;;;;;5.25;5.25;;;;;25.63;45.80;100501.16;4962195;28;45974;-72
2023/08/30 06:51:15;;;;;;;;;6.00;4.00;;;;;25.60;45.91;100513.34;4961597;28;58793;-70
2023/08/30 06:53:40;;;;;;;;;4.75;4.50;;;;;25.65;46.00;100492.75;4962034;28;56188;-70
2023/08/30 06:56:06;;;;;;;;;6.75;4.50;;;;;25.51;45.95;100499.78;4962331;28;45332;-70
2023/08/30 06:58:31;;;;;;;;;2.00;2.00;;;;;25.51;45.93;100499.78;4962111;28;59379;-70
2023/08/30 07:00:57;;;;;;;;;3.00;3.00;;;;;25.65;46.19;100498.25;4961982;28;45327;-70
2023/08/30 07:03:22;;;;;;;;;4.00;4.00;;;;;25.68;46.07;100503.41;4962526;28;45469;-70
2023/08/30 07:05:48;;;;;;;;;4.50;2.00;;;;;25.91;45.13;100510.72;4961302;28;56263;-70
2023/08/30 07:08:16;;;;;;;;;4.50;2.50;;;;;26.10;44.86;100505.88;4962199;28;46347;-70
2023/08/30 07:10:41;;;;;;;;;6.50;5.00;;;;;26.11;44.55;100510.34;4962015;28;46053;-70
2023/08/30 07:13:10;;;;;;;;;2.00;2.00;;;;;26.18;44.68;100514.09;4962217;28;45185;-70
2023/08/30 07:15:36;;;;;;;;;3.25;3.25;;;;;26.21;44.21;100517.34;4962078;28;45494;-71
2023/08/30 07:18:01;;;;;;;;;3.00;3.00;;;;;26.27;43.88;100504.84;4962094;28;45450;-71
2023/08/30 07:20:27;;;;;;;;;3.25;3.25;;;;;26.17;43.88;100510.50;4961318;28;45466;-71
2023/08/30 07:22:52;;;;;;;;;1.50;1.50;;;;;26.14;44.25;100512.72;4961789;28;51243;-71
2023/08/30 07:25:17;;;;;;;;;3.00;3.00;;;;;26.22;43.92;100518.19;4961603;28;50328;-71
2023/08/30 07:27:43;;;;;;;;;2.00;2.00;;;;;26.24;43.73;100494.16;4961846;28;46006;-70
2023/08/30 07:30:08;;;;;;;;;2.75;2.75;;;;;26.33;43.79;100512.34;4961501;28;45323;-72
2023/08/30 07:32:35;;;;;;;;;1.25;1.25;;;;;26.37;42.83;100500.81;4961546;28;45483;-72
2023/08/30 07:35:01;;;;;;;;;6.00;1.50;;;;;26.45;43.10;100510.09;4960663;28;45537;-71
2023/08/30 07:37:26;;;;;;;;;2.00;2.00;;;;;26.49;43.51;100509.53;4961604;28;46243;-71
2023/08/30 07:39:52;;;;;;;;;1.00;1.00;;;;;26.50;42.86;100504.91;4961667;28;45265;-72
2023/08/30 07:42:18;;;;;;;;;2.00;2.00;;;;;26.55;42.86;100494.22;4961876;28;45380;-71
2023/08/30 07:44:43;;;;;;;;;4.00;2.25;;;;;26.45;42.90;100497.19;4961628;28;46625;-71
2023/08/30 07:47:08;;;;;;;;;1.50;1.50;;;;;26.75;42.82;100507.34;4961665;28;46100;-72
2023/08/30 07:49:34;;;;;;;;;2.00;2.00;;;;;26.76;42.23;100502.69;4961477;28;45208;-72
2023/08/30 07:51:59;;;;;;;;;1.50;1.25;;;;;26.54;42.58;100509.03;4961687;28;45257;-71
2023/08/30 07:54:24;;;;;;;;;1.00;1.00;;;;;26.68;42.85;100508.25;4961587;28;45442;-71
2023/08/30 07:56:50;;;;;;;;;0.50;0.50;;;;;26.74;41.91;100507.53;4961180;28;55846;-70
2023/08/30 07:59:15;;;;;;;;;4.25;1.50;;;;;26.83;42.12;100509.19;4960934;28;60055;-71
2023/08/30 08:01:40;;;;;;;;;2.00;2.00;;;;;26.90;41.77;100515.66;4961182;28;51140;-71
2023/08/30 08:04:06;;;;;;;;;3.00;2.75;;;;;26.83;41.54;100511.06;4942998;28;46377;-71
2023/08/30 08:06:31;;;;;;;;;2.00;2.00;;;;;26.90;42.02;100498.31;4960878;28;45354;-70
2023/08/30 08:08:56;;;;;;;;;1.75;1.75;;;;;26.96;41.98;100498.50;4961285;28;45289;-68
2023/08/30 08:11:22;;;;;;;;;1.75;1.75;;;;;27.09;41.48;100506.13;4961055;28;52318;-71
2023/08/30 08:13:47;;;;;;;;;1.25;1.25;;;;;26.91;41.38;100492.66;4961448;28;45365;-70
2023/08/30 08:16:12;;;;;;;;;2.25;2.25;;;;;26.80;41.09;100506.78;4961470;28;45945;-71
2023/08/30 08:18:38;;;;;;;;;3.00;3.00;;;;;26.68;41.57;100505.50;4961023;28;45338;-71
2023/08/30 08:21:04;;;;;;;;;2.50;2.00;;;;;26.78;41.42;100508.88;4960914;28;45371;-71
2023/08/30 08:23:29;;;;;;;;;3.00;3.00;;;;;27.07;40.73;100500.78;4960984;28;45405;-72
2023/08/30 08:26:00;;;;;;;;;2.00;2.00;;;;;26.91;40.75;100509.16;4961197;28;46208;-71
2023/08/30 08:28:26;;;;;;;;;1.50;1.50;;;;;26.82;40.18;100512.09;4960881;28;45349;-71
2023/08/30 08:30:51;;;;;;;;;4.25;2.00;;;;;26.78;40.44;100514.38;4960525;28;45377;-71
2023/08/30 08:33:17;;;;;;;;;4.25;3.00;;;;;26.89;40.80;100524.09;4960635;28;49680;-71
2023/08/30 08:35:43;;;;;;;;;2.50;2.50;;;;;26.94;40.21;100513.47;4959576;28;45350;-70
2023/08/30 08:38:10;;;;;;;;;2.00;2.00;;;;;27.13;38.91;100515.75;4960728;28;45268;-71
2023/08/30 08:40:41;;;;;;;;;2.00;2.00;;;;;27.29;39.45;100515.63;4943456;28;45365;-71
2023/08/30 08:43:09;;;;;;;;;2.00;2.00;;;;;27.25;39.04;100516.16;4960675;28;45516;-72
2023/08/30 08:45:37;;;;;;;;;2.25;2.25;;;;;27.11;38.88;100515.06;4960153;28;45347;-71
2023/08/30 08:48:05;;;;;;;;;4.50;2.25;;;;;27.21;39.61;100515.69;4960201;28;45253;-71
2023/08/30 08:50:31;;;;;;;;;2.25;2.25;;;;;27.35;38.89;100523.13;4960445;28;45240;-70
2023/08/30 08:52:57;;;;;;;;;1.50;1.50;;;;;27.35;39.09;100523.13;4960440;28;45287;-70
2023/08/30 08:55:22;;;;;;;;;3.25;3.25;;;;;27.40;39.04;100511.56;4960404;28;45450;-71
2023/08/30 08:57:48;;;;;;;;;1.50;1.50;;;;;27.18;37.75;100523.44;4960568;28;45300;-71
2023/08/30 09:00:16;;;;;;;;;1.00;1.00;;;;;27.21;37.95;100512.94;4960652;28;45474;-70
2023/08/30 09:02:42;;;;;;;;;1.25;1.25;;;;;27.22;37.70;100514.63;4960267;28;45209;-69
2023/08/30 09:05:08;;;;;;;;;3.00;1.75;;;;;27.31;37.81;100512.66;4960037;28;46182;-71
2023/08/30 09:07:35;;;;;;;;;3.50;3.00;;;;;27.34;37.16;100524.16;4960422;28;45236;-70
2023/08/30 09:10:01;;;;;;;;;3.50;2.50;;;;;27.55;37.57;100519.91;4960548;28;45251;-71
2023/08/30 09:12:26;;;;;;;;;4.25;1.50;;;;;27.47;37.02;100524.44;4960177;28;45308;-71
2023/08/30 09:14:55;;;;;;;;;1.50;1.50;;;;;27.48;36.87;100500.47;4959978;28;56809;-70
2023/08/30 09:17:21;;;;;;;;;1.50;1.50;;;;;27.45;36.26;100520.13;4960489;28;45282;-71
2023/08/30 09:19:46;;;;;;;;;2.00;2.00;;;;;27.42;36.36;100526.00;4960122;28;45470;-71
2023/08/30 09:22:12;;;;;;;;;2.00;1.50;;;;;27.50;36.28;100525.94;4959960;28;45749;-70
2023/08/30 09:24:40;;;;;;;;;3.25;2.75;;;;;27.47;36.25;100529.94;4960334;28;49293;-70
2023/08/30 09:27:06;;;;;;;;;2.50;2.50;;;;;27.57;36.54;100515.91;4959929;28;45435;-70
2023/08/30 09:29:32;;;;;;;;;1.50;1.50;;;;;27.61;36.70;100511.75;4960212;28;45338;-71
2023/08/30 09:31:58;;;;;;;;;0.75;0.75;;;;;27.62;36.12;100524.50;4959505;28;45597;-70
2023/08/30 09:34:25;;;;;;;;;2.00;2.00;;;;;27.64;36.40;100516.06;4959821;28;46465;-71
2023/08/30 09:36:50;;;;;;;;;1.75;1.75;;;;;27.84;35.77;100512.56;4958999;28;45342;-71
2023/08/30 09:39:16;;;;;;;;;1.50;1.50;;;;;27.80;35.66;100502.97;4959608;28;45200;-70
2023/08/30 09:41:43;;;;;;;;;1.75;1.75;;;;;27.79;35.00;100511.41;4959379;28;51441;-70
2023/08/30 09:44:18;;;;;;;;;2.25;2.25;;;;;28.06;35.52;100510.78;4960151;28;45408;-71
2023/08/30 09:46:45;;;;;;;;;6.25;3.75;;;;;28.05;32.82;100508.22;4959853;28;45256;-71
2023/08/30 09:49:14;;;;;;;;;2.00;2.00;;;;;28.20;33.67;100509.97;4959799;28;45316;-71
2023/08/30 09:51:42;;;;;;;;;2.50;1.50;;;;;28.19;32.02;100502.75;4959958;28;45472;-69
2023/08/30 09:54:14;;;;;;;;;1.00;1.00;;;;;28.07;32.02;100503.38;4959274;28;45497;-71
2023/08/30 09:56:41;;;;;;;;;5.00;3.50;;;;;28.01;31.73;100504.97;4959484;28;45354;-71
2023/08/30 09:59:07;;;;;;;;;0.50;0.50;;;;;28.04;31.29;100504.59;4963395;28;45201;-71
2023/08/30 10:01:32;;;;;;;;;1.25;1.25;;;;;27.98;32.54;100490.72;4951554;28;47100;-70
2023/08/30 10:03:59;;;;;;;;;3.50;1.50;;;;;28.00;31.67;100494.13;4961515;28;45307;-70
2023/08/30 10:06:24;;;;;;;;;2.00;2.00;;;;;27.98;32.07;100496.25;4962929;28;45242;-71
2023/08/30 10:08:51;;;;;;;;;5.00;2.25;;;;;27.99;32.76;100500.69;4963119;28;45191;-70
2023/08/30 10:11:18;;;;;;;;;3.00;1.25;;;;;28.14;32.76;100502.44;4963031;28;45287;-69
2023/08/30 10:13:45;;;;;;;;;2.50;2.50;;;;;28.10;32.60;100501.09;4962933;28;46228;-69
2023/08/30 10:16:18;;;;;;;;;4.75;1.75;;;;;28.24;32.32;100514.03;4963085;28;45553;-70
2023/08/30 10:18:52;;;;;;;;;1.25;1.25;;;;;28.18;31.89;100509.28;4962594;28;45400;-70
2023/08/30 10:21:18;;;;;;;;;2.50;2.50;;;;;28.05;31.48;100500.81;4962715;28;45346;-70
2023/08/30 10:23:46;;;;;;;;;3.75;2.25;;;;;27.99;31.32;100506.19;4962550;28;46237;-70
2023/08/30 10:26:12;;;;;;;;;1.75;1.75;;;;;28.15;31.92;100506.91;4961561;28;45245;-69
2023/08/30 10:28:40;;;;;;;;;2.00;2.00;;;;;28.06;31.63;100509.94;4962668;28;45245;-71
2023/08/30 10:31:05;;;;;;;;;2.50;2.50;;;;;28.32;30.84;100517.78;4962140;28;45309;-70
2023/08/30 10:33:31;;;;;;;;;6.00;2.00;;;;;28.21;30.12;100497.91;4962707;28;46371;-70
2023/08/30 10:36:05;;;;;;;;;3.00;1.75;;;;;28.34;30.14;100501.88;4962482;28;45383;-69
2023/08/30 10:38:33;;;;;;;;;2.75;2.50;;;;;28.21;29.46;100508.91;4962979;28;45402;-71
2023/08/30 10:41:09;;;;;;;;;2.75;2.75;;;;;28.19;30.13;100497.22;4944931;28;45320;-69
2023/08/30 10:43:37;;;;;;;;;3.25;3.00;;;;;28.19;28.73;100502.75;4962545;28;46299;-68
2023/08/30 10:46:04;;;;;;;;;7.00;4.50;;;;;28.26;29.26;100507.47;4962436;28;45188;-70
2023/08/30 10:48:39;;;;;;;;;4.50;1.75;;;;;28.47;28.72;100491.88;4962666;28;45236;-69
2023/08/30 10:51:19;;;;;;;;;2.25;2.25;;;;;28.78;29.43;100508.22;4958243;28;46697;-70
2023/08/30 10:53:55;;;;;;;;;4.25;2.25;;;;;28.81;28.70;100505.06;4962299;28;45887;-70
2023/08/30 10:56:30;;;;;;;;;2.00;2.00;;;;;28.84;28.91;100504.66;4962560;28;45403;-70
2023/08/30 10:58:56;;;;;;;;;2.25;2.25;;;;;29.11;29.43;100496.69;4961925;28;45352;-70
2023/08/30 11:01:22;;;;;;;;;6.75;3.50;;;;;29.36;29.13;100503.53;4962039;28;45427;-69
2023/08/30 11:03:49;;;;;;;;;2.50;2.50;;;;;29.20;28.82;100501.88;4961446;28;46564;-71
2023/08/30 11:06:17;;;;;;;;;4.75;4.75;;;;;29.08;28.76;100497.94;4962104;28;45232;-70
2023/08/30 11:08:42;;;;;;;;;4.25;3.00;;;;;29.23;29.26;100495.97;4961624;28;45406;-70
2023/08/30 11:11:09;;;;;;;;;2.50;2.50;;;;;29.23;29.67;100501.50;4962078;28;45774;-71
2023/08/30 11:13:35;;;;;;;;;5.00;5.00;;;;;29.15;29.02;100507.16;4961713;28;46348;-69
2023/08/30 11:16:01;;;;;;;;;4.00;4.00;;;;;29.05;28.94;100494.72;4962137;28;45259;-69
2023/08/30 11:18:27;;;;;;;;;6.00;4.00;;;;;29.17;29.02;100504.19;4962121;28;45163;-69
2023/08/30 11:21:02;;;;;;;;;2.75;2.75;;;;;29.14;28.37;100494.38;4961707;28;45549;-71
2023/08/30 11:23:27;;;;;;;;;2.50;2.50;;;;;29.25;28.79;100493.88;4962039;28;46528;-69
2023/08/30 11:25:53;;;;;;;;;3.00;1.00;;;;;29.48;28.83;100496.44;4962136;28;45175;-69
2023/08/30 11:28:25;;;;;;;;;4.00;4.00;;;;;29.48;28.54;100496.44;4961971;28;45697;-69
2023/08/30 11:30:54;;;;;;;;;5.75;2.50;;;;;29.66;28.62;100490.44;4961189;28;45699;-69
2023/08/30 11:33:20;;;;;;;;;3.25;2.00;;;;;29.90;27.78;100503.81;4961651;28;46114;-70
2023/08/30 11:35:51;;;;;;;;;4.25;2.75;;;;;29.86;27.43;100508.00;4960829;28;45241;-70
2023/08/30 11:38:19;;;;;;;;;3.00;3.00;;;;;29.84;27.79;100493.56;4961729;28;45324;-68
2023/08/30 11:40:45;;;;;;;;;1.00;0.00;;;;;29.97;28.10;100492.81;4961593;28;45522;-70
2023/08/30 11:43:11;;;;;;;;;2.50;2.50;;;;;30.18;27.26;100492.75;4960996;28;45582;-69
2023/08/30 11:45:36;;;;;;;;;1.75;1.75;;;;;30.30;27.31;100502.16;4961751;28;45481;-70
2023/08/30 11:48:02;;;;;;;;;2.00;1.50;;;;;30.54;27.52;100489.75;4960844;28;57184;-70
2023/08/30 11:50:29;;;;;;;;;4.50;1.75;;;;;30.44;27.16;100498.44;4961356;28;45676;-70
2023/08/30 11:52:55;;;;;;;;;2.00;2.00;;;;;30.39;27.45;100497.31;4961157;28;46091;-69
2023/08/30 11:55:21;;;;;;;;;3.75;2.25;;;;;30.15;27.77;100490.38;4961529;28;45331;-69
2023/08/30 11:57:50;;;;;;;;;3.00;3.00;;;;;30.29;27.13;100494.06;4959503;28;45296;-71
2023/08/30 12:00:18;;;;;;;;;5.25;2.50;;;;;30.40;27.27;100488.81;4961356;28;45447;-70
2023/08/30 12:02:46;;;;;;;;;2.75;2.75;;;;;30.45;26.80;100488.22;4960849;28;45296;-71
2023/08/30 12:05:15;;;;;;;;;6.75;3.00;;;;;30.68;26.27;100477.69;4961019;28;45272;-70
2023/08/30 12:07:41;;;;;;;;;3.75;2.75;;;;;30.70;25.39;100485.81;4961223;28;45435;-70
2023/08/30 12:10:08;;;;;;;;;3.75;2.00;;;;;30.50;25.98;100482.06;4961141;28;45390;-70
2023/08/30 12:12:36;;;;;;;;;4.00;4.00;;;;;30.08;25.82;100476.53;4960844;28;45335;-70
2023/08/30 12:15:07;;;;;;;;;4.00;3.00;;;;;30.34;26.28;100478.59;4960466;28;45317;-71
2023/08/30 12:17:34;;;;;;;;;2.00;2.00;;;;;30.11;25.63;100479.94;4961359;28;45402;-71
2023/08/30 12:20:00;;;;;;;;;3.00;1.75;;;;;30.22;25.88;100480.22;4960563;28;45359;-70
2023/08/30 12:22:41;;;;;;;;;4.00;2.75;;;;;30.33;26.67;100481.56;4959984;28;46140;-72
2023/08/30 12:25:17;;;;;;;;;1.75;1.50;;;;;30.23;25.99;100492.13;4961024;28;45228;-70
2023/08/30 12:27:43;;;;;;;;;2.75;0.75;;;;;30.32;25.58;100489.00;4961129;28;45367;-69
2023/08/30 12:30:08;;;;;;;;;2.25;2.25;;;;;30.25;25.79;100490.03;4960275;28;45525;-69
2023/08/30 12:32:33;;;;;;;;;4.75;3.75;;;;;30.30;26.23;100482.81;4960634;28;46720;-70
2023/08/30 12:34:59;;;;;;;;;4.25;3.00;;;;;30.22;26.04;100499.56;4960000;28;59837;-69
2023/08/30 12:37:24;;;;;;;;;2.50;2.50;;;;;30.28;26.55;100497.91;4960569;28;54493;-72
2023/08/30 12:39:49;;;;;;;;;2.25;2.00;;;;;30.22;26.62;100504.25;4960689;28;45555;-70
2023/08/30 12:42:15;;;;;;;;;2.75;2.75;;;;;30.15;27.10;100501.44;4960343;28;55078;-70
2023/08/30 12:44:40;;;;;;;;;1.75;1.75;;;;;29.95;27.45;100494.91;4960659;28;45347;-70
2023/08/30 12:47:05;;;;;;;;;2.75;2.75;;;;;29.99;27.16;100508.16;4960773;28;46775;-70
2023/08/30 12:49:30;;;;;;;;;2.75;2.75;;;;;30.14;27.46;100504.41;4960372;28;45635;-70
2023/08/30 12:51:56;;;;;;;;;3.00;3.00;;;;;30.29;27.40;100514.28;4949505;28;60151;-70
2023/08/30 12:54:21;;;;;;;;;3.00;2.75;;;;;30.37;27.43;100507.72;4960375;28;45324;-72
2023/08/30 12:56:46;;;;;;;;;7.00;3.00;;;;;30.36;26.83;100497.75;4960070;28;56829;-71
2023/08/30 12:59:12;;;;;;;;;4.25;4.25;;;;;30.40;27.65;100505.41;4960318;28;45326;-70
2023/08/30 13:01:37;;;;;;;;;2.25;2.25;;;;;30.76;27.78;100499.66;4960378;28;46195;-71
2023/08/30 13:04:03;;;;;;;;;3.50;3.50;;;;;31.13;27.47;100511.31;4959855;28;51442;-71
2023/08/30 13:06:28;;;;;;;;;4.00;4.00;;;;;31.24;25.80;100504.28;4960458;28;45229;-71
2023/08/30 13:08:54;;;;;;;;;2.75;2.75;;;;;31.04;26.26;100512.53;4960366;28;45249;-71
2023/08/30 13:11:19;;;;;;;;;3.00;3.00;;;;;30.76;26.34;100499.66;4960377;28;46133;-70
2023/08/30 13:13:44;;;;;;;;;3.00;3.00;;;;;30.62;26.88;100506.22;4960296;28;45240;-70
2023/08/30 13:16:09;;;;;;;;;3.50;3.50;;;;;30.32;26.83;100513.03;4960646;28;45301;-71
2023/08/30 13:18:35;;;;;;;;;3.25;3.00;;;;;30.10;26.73;100509.50;4959584;28;53086;-69
2023/08/30 13:21:00;;;;;;;;;3.00;3.00;;;;;29.92;26.54;100492.53;4960030;28;47280;-70
2023/08/30 13:23:25;;;;;;;;;3.75;3.50;;;;;30.18;26.44;100503.81;4960068;28;45293;-71
2023/08/30 13:25:51;;;;;;;;;2.00;2.00;;;;;30.68;26.65;100510.91;4960177;28;51484;-72
2023/08/30 13:28:16;;;;;;;;;3.00;3.00;;;;;30.79;26.02;100507.53;4959821;28;54064;-71
2023/08/30 13:30:45;;;;;;;;;3.25;3.25;;;;;31.01;25.57;100499.09;4959001;28;63108;-70
2023/08/30 13:33:11;;;;;;;;;3.50;3.50;;;;;30.84;25.64;100507.78;4959221;28;45304;-70
2023/08/30 13:35:39;;;;;;;;;3.25;3.25;;;;;30.46;25.23;100493.53;4959798;28;45244;-71
2023/08/30 13:38:04;;;;;;;;;3.00;3.00;;;;;30.44;24.91;100516.94;4958474;28;45306;-71
2023/08/30 13:40:29;;;;;;;;;4.75;3.75;;;;;30.14;25.03;100512.69;4960096;28;45269;-71
2023/08/30 13:42:55;;;;;;;;;5.75;4.25;;;;;30.32;24.98;100524.09;4959933;28;45262;-71
2023/08/30 13:45:20;;;;;;;;;3.00;3.00;;;;;30.05;26.25;100510.09;4959850;28;45322;-71
2023/08/30 13:47:46;;;;;;;;;3.50;3.50;;;;;30.28;26.31;100507.06;4959056;28;45532;-71
2023/08/30 13:50:12;;;;;;;;;1.75;1.75;;;;;31.00;25.19;100516.75;4958949;28;45619;-71
2023/08/30 13:52:37;;;;;;;;;3.75;2.25;;;;;30.88;25.18;100508.19;4959650;28;45383;-70
2023/08/30 13:55:03;;;;;;;;;3.00;3.00;;;;;30.90;25.79;100521.84;4960069;28;45415;-70
2023/08/30 13:57:28;;;;;;;;;5.00;3.00;;;;;30.73;25.58;100521.34;4959649;28;45457;-71
2023/08/30 13:59:53;;;;;;;;;2.50;2.50;;;;;30.71;25.60;100523.50;4959939;28;45345;-71
2023/08/30 14:02:19;;;;;;;;;4.00;4.00;;;;;30.69;25.67;100512.63;4959263;28;55371;-72
2023/08/30 14:04:44;;;;;;;;;3.00;3.00;;;;;30.68;26.37;100510.06;4959846;28;45306;-72
2023/08/30 14:07:11;;;;;;;;;5.25;3.75;;;;;31.67;25.43;100510.31;4959396;28;46122;-72
2023/08/30 14:09:37;;;;;;;;;3.75;3.75;;;;;32.83;23.73;100520.56;4958925;28;45372;-73
2023/08/30 14:12:03;;;;;;;;;3.00;3.00;;;;;33.35;23.48;100513.84;4941911;28;45446;-74
2023/08/30 14:14:29;;;;;;;;;2.25;2.25;;;;;33.74;22.69;100520.22;4959334;28;45288;-73
2023/08/30 14:16:54;;;;;;;;;2.00;1.75;;;;;33.58;22.93;100518.84;4959408;28;45257;-73
2023/08/30 14:19:20;;;;;;;;;4.50;3.00;;;;;34.04;21.78;100524.00;4959251;28;45427;-74
2023/08/30 14:21:45;;;;;;;;;3.25;3.25;;;;;34.46;21.66;100524.22;4959170;28;45376;-72
2023/08/30 14:24:11;;;;;;;;;4.75;3.00;;;;;34.76;20.92;100533.56;4958877;28;45180;-72
2023/08/30 14:26:36;;;;;;;;;2.75;2.00;;;;;35.37;20.49;100521.38;4959442;28;46270;-73
2023/08/30 14:29:02;;;;;;;;;3.00;3.00;;;;;35.69;20.78;100526.63;4959209;28;46176;-73
2023/08/30 14:31:29;;;;;;;;;2.50;2.25;;;;;35.44;21.20;100537.97;4959131;28;45370;-74
2023/08/30 14:33:58;;;;;;;;;3.75;3.00;;;;;35.37;20.79;100538.09;4959391;28;45287;-74
2023/08/30 14:36:23;;;;;;;;;3.00;3.00;;;;;35.16;21.26;100535.78;4959056;28;45236;-72
2023/08/30 14:38:49;;;;;;;;;1.25;1.25;;;;;34.65;21.71;100531.50;4958992;28;53347;-74
2023/08/30 14:41:15;;;;;;;;;3.50;3.50;;;;;34.59;22.31;100545.50;4959294;28;45214;-74
2023/08/30 14:43:41;;;;;;;;;3.00;3.00;;;;;34.04;22.17;100526.78;4959591;28;45240;-73
2023/08/30 14:46:06;;;;;;;;;3.50;3.50;;;;;33.38;22.25;100535.66;4962323;28;45496;-74
2023/08/30 14:48:32;;;;;;;;;3.25;3.25;;;;;33.19;22.79;100547.69;4962307;28;46052;-73
2023/08/30 14:50:59;;;;;;;;;2.25;2.25;;;;;33.03;22.86;100548.22;4961527;28;45414;-74
2023/08/30 14:53:24;;;;;;;;;6.25;4.75;;;;;32.66;23.04;100544.31;4962618;28;45323;-73
2023/08/30 14:55:49;;;;;;;;;4.25;3.75;;;;;32.33;23.71;100555.50;4962259;28;45275;-74
2023/08/30 14:58:15;;;;;;;;;4.50;4.25;;;;;32.14;23.62;100553.59;4962231;28;52841;-73
2023/08/30 15:00:40;;;;;;;;;3.00;3.00;;;;;31.99;23.24;100534.38;4961928;28;50462;-74
2023/08/30 15:03:06;;;;;;;;;2.25;2.25;;;;;32.36;23.04;100543.13;4962459;28;45457;-73
2023/08/30 15:05:31;;;;;;;;;3.00;3.00;;;;;33.27;23.05;100544.69;4961767;28;45500;-73
2023/08/30 15:07:56;;;;;;;;;1.00;1.00;;;;;33.82;22.00;100547.75;4962196;28;46274;-73
2023/08/30 15:10:22;;;;;;;;;2.75;2.75;;;;;34.04;22.04;100557.38;4962228;28;45359;-74
2023/08/30 15:12:47;;;;;;;;;2.00;2.00;;;;;34.03;22.22;100566.81;4962346;28;50742;-73
2023/08/30 15:15:14;;;;;;;;;1.75;1.75;;;;;34.13;22.35;100567.16;4944912;28;45249;-75
2023/08/30 15:17:39;;;;;;;;;3.75;2.00;;;;;34.09;22.24;100549.22;4962326;28;46417;-74
2023/08/30 15:20:08;;;;;;;;;2.00;1.25;;;;;33.98;22.17;100563.03;4961624;28;45233;-74
2023/08/30 15:22:34;;;;;;;;;2.00;2.00;;;;;33.65;22.51;100555.78;4962109;28;45291;-75
2023/08/30 15:25:02;;;;;;;;;2.25;2.25;;;;;33.15;23.13;100567.84;4961957;28;45257;-74
2023/08/30 15:27:30;;;;;;;;;2.75;2.75;;;;;32.38;23.14;100569.59;4961951;28;47012;-74
2023/08/30 15:29:55;;;;;;;;;3.00;2.00;;;;;31.83;23.81;100565.31;4961774;28;45363;-75
2023/08/30 15:32:22;;;;;;;;;2.00;2.00;;;;;31.51;24.49;100562.28;4961599;28;45184;-74
2023/08/30 15:34:49;;;;;;;;;4.00;2.25;;;;;31.29;24.76;100573.75;4961140;28;45401;-76
2023/08/30 15:37:14;;;;;;;;;3.25;1.75;;;;;31.15;25.29;100575.63;4960512;28;45356;-75
2023/08/30 15:39:40;;;;;;;;;4.50;3.00;;;;;30.88;24.72;100568.28;4961701;28;45256;-74
2023/08/30 15:42:05;;;;;;;;;2.75;2.75;;;;;30.73;25.14;100577.56;4960522;28;45438;-74
2023/08/30 15:44:30;;;;;;;;;2.50;1.50;;;;;30.38;25.39;100571.16;4961772;28;45251;-75
2023/08/30 15:46:56;;;;;;;;;4.00;2.75;;;;;30.12;26.35;100568.19;4961603;28;53696;-74
2023/08/30 15:49:21;;;;;;;;;2.25;2.25;;;;;30.15;25.46;100576.09;4961320;28;52430;-74
2023/08/30 15:51:46;;;;;;;;;2.00;2.00;;;;;30.16;26.23;100572.28;4961724;28;45328;-74